Time,TemperatureF,DewpointF,PressureIn,WindDirection,WindDirectionDegrees,WindSpeedMPH,WindSpeedGustMPH,Humidity,HourlyPrecipIn,Conditions,Clouds,dailyrainin,SolarRadiationWatts/m^2,SoftwareType,DateUTC
2013-04-19 00:00:00,44.0,44.0,-100.00,SSW,202,8.0,-999.0,99,0.01,,,-99.99,0.000000,,2013-04-19 05:00:00,
2013-04-19 00:42:00,44.0,44.0,-100.00,SSW,202,8.0,-999.0,99,0.01,,,-99.99,0.000000,,2013-04-19 05:42:00,
2013-04-19 00:52:00,44.0,44.0,-100.00,SSW,202,8.0,-999.0,99,0.01,,,-99.99,0.000000,,2013-04-19 05:52:00,
2013-04-19 01:00:00,45.0,45.0,-100.00,SSW,202,13.0,-999.0,99,-99.99,,,-99.99,0.000000,,2013-04-19 06:00:00,
2013-04-19 01:42:00,45.0,45.0,-100.00,SSW,202,13.0,-999.0,99,-99.99,,,-99.99,0.000000,,2013-04-19 06:42:00,
2013-04-19 01:53:00,45.0,45.0,-100.00,SSW,202,13.0,-999.0,99,-99.99,,,-99.99,0.000000,,2013-04-19 06:53:00,
2013-04-19 03:00:00,41.0,39.0,-100.00,South,180,6.0,-999.0,93,-99.99,,,-99.99,0.000000,,2013-04-19 08:00:00,
2013-04-19 03:42:00,41.0,39.0,-100.00,South,180,6.0,-999.0,93,-99.99,,,-99.99,0.000000,,2013-04-19 08:42:00,
2013-04-19 03:52:00,41.0,39.0,-100.00,South,180,6.0,-999.0,93,-99.99,,,-99.99,0.000000,,2013-04-19 08:52:00,
2013-04-19 04:00:00,38.0,36.0,-100.00,SSW,202,7.0,-999.0,92,-99.99,,,-99.99,0.000000,,2013-04-19 09:00:00,
2013-04-19 04:43:00,38.0,36.0,-100.00,SSW,202,7.0,-999.0,92,-99.99,,,-99.99,0.000000,,2013-04-19 09:43:00,
2013-04-19 04:52:00,38.0,36.0,-100.00,SSW,202,7.0,-999.0,92,-99.99,,,-99.99,0.000000,,2013-04-19 09:52:00,
2013-04-19 05:00:00,37.0,34.0,-100.00,SSW,202,9.0,-999.0,88,-99.99,,,-99.99,0.000000,,2013-04-19 10:00:00,
2013-04-19 05:42:00,37.0,34.0,-100.00,SSW,202,9.0,-999.0,88,-99.99,,,-99.99,0.000000,,2013-04-19 10:42:00,
2013-04-19 05:52:00,37.0,34.0,-100.00,SSW,202,9.0,-999.0,88,-99.99,,,-99.99,0.000000,,2013-04-19 10:52:00,
2013-04-19 06:00:00,36.0,32.0,-100.00,SSW,202,11.0,-999.0,85,-99.99,,,-99.99,0.000000,,2013-04-19 11:00:00,
2013-04-19 06:43:00,36.0,32.0,-100.00,SSW,202,11.0,-999.0,85,-99.99,,,-99.99,0.000000,,2013-04-19 11:43:00,
2013-04-19 06:52:00,36.0,32.0,-100.00,SSW,202,11.0,-999.0,85,-99.99,,,-99.99,0.000000,,2013-04-19 11:52:00,
2013-04-19 07:00:00,35.0,31.0,-100.00,SSW,202,11.0,-999.0,83,-99.99,,,-99.99,23.200001,,2013-04-19 12:00:00,
2013-04-19 07:42:00,35.0,31.0,-100.00,SSW,202,11.0,-999.0,83,-99.99,,,-99.99,23.200001,,2013-04-19 12:42:00,
2013-04-19 07:53:00,35.0,31.0,-100.00,SSW,202,11.0,-999.0,83,-99.99,,,-99.99,23.200001,,2013-04-19 12:53:00,
2013-04-19 08:00:00,35.0,30.0,-100.00,SW,225,14.0,-999.0,80,-99.99,,,-99.99,60.320000,,2013-04-19 13:00:00,
2013-04-19 08:42:00,35.0,30.0,-100.00,SW,225,14.0,-999.0,80,-99.99,,,-99.99,60.320000,,2013-04-19 13:42:00,
2013-04-19 08:52:00,35.0,30.0,-100.00,SW,225,14.0,-999.0,80,-99.99,,,-99.99,60.320000,,2013-04-19 13:52:00,
2013-04-19 09:00:00,35.0,29.0,-100.00,SW,225,16.0,-999.0,77,-99.99,,,-99.99,147.320007,,2013-04-19 14:00:00,
2013-04-19 09:43:00,35.0,29.0,-100.00,SW,225,16.0,-999.0,77,-99.99,,,-99.99,147.320007,,2013-04-19 14:43:00,
2013-04-19 09:52:00,35.0,29.0,-100.00,SW,225,16.0,-999.0,77,-99.99,,,-99.99,147.320007,,2013-04-19 14:52:00,
2013-04-19 10:00:00,36.0,29.0,-100.00,SW,225,16.0,-999.0,78,-99.99,,,-99.99,183.279999,,2013-04-19 15:00:00,
2013-04-19 10:43:00,36.0,29.0,-100.00,SW,225,16.0,-999.0,78,-99.99,,,-99.99,183.279999,,2013-04-19 15:43:00,
2013-04-19 10:52:00,36.0,29.0,-100.00,SW,225,16.0,-999.0,78,-99.99,,,-99.99,183.279999,,2013-04-19 15:52:00,
2013-04-19 11:00:00,36.0,31.0,-100.00,SW,225,17.0,-999.0,81,-99.99,,,-99.99,216.919998,,2013-04-19 16:00:00,
2013-04-19 11:43:00,36.0,31.0,-100.00,SW,225,17.0,-999.0,81,-99.99,,,-99.99,216.919998,,2013-04-19 16:43:00,
2013-04-19 11:53:00,36.0,31.0,-100.00,SW,225,17.0,-999.0,81,-99.99,,,-99.99,216.919998,,2013-04-19 16:53:00,
2013-04-19 12:00:00,35.0,32.0,-100.00,WSW,247,15.0,-999.0,88,-99.99,,,-99.99,230.839996,,2013-04-19 17:00:00,
2013-04-19 12:43:00,35.0,32.0,-100.00,WSW,247,15.0,-999.0,88,-99.99,,,-99.99,230.839996,,2013-04-19 17:43:00,
2013-04-19 12:52:00,35.0,32.0,-100.00,WSW,247,15.0,-999.0,88,-99.99,,,-99.99,230.839996,,2013-04-19 17:52:00,
2013-04-19 13:00:00,35.0,31.0,-100.00,West,270,16.0,-999.0,84,-99.99,,,-99.99,366.559998,,2013-04-19 18:00:00,
2013-04-19 13:43:00,35.0,31.0,-100.00,West,270,16.0,-999.0,84,-99.99,,,-99.99,366.559998,,2013-04-19 18:43:00,
2013-04-19 13:52:00,35.0,31.0,-100.00,West,270,16.0,-999.0,84,-99.99,,,-99.99,366.559998,,2013-04-19 18:52:00,
2013-04-19 14:00:00,37.0,26.0,-100.00,West,270,20.0,-999.0,65,-99.99,,,-99.99,586.960022,,2013-04-19 19:00:00,
2013-04-19 14:42:00,37.0,26.0,-100.00,West,270,20.0,-999.0,65,-99.99,,,-99.99,586.960022,,2013-04-19 19:42:00,
2013-04-19 14:52:00,37.0,26.0,-100.00,West,270,20.0,-999.0,65,-99.99,,,-99.99,586.960022,,2013-04-19 19:52:00,
2013-04-19 15:00:00,37.0,24.0,-100.00,West,270,21.0,-999.0,58,-99.99,,,-99.99,553.320007,,2013-04-19 20:00:00,
2013-04-19 15:42:00,37.0,24.0,-100.00,West,270,21.0,-999.0,58,-99.99,,,-99.99,553.320007,,2013-04-19 20:42:00,
2013-04-19 15:52:00,37.0,24.0,-100.00,West,270,21.0,-999.0,58,-99.99,,,-99.99,553.320007,,2013-04-19 20:52:00,
2013-04-19 17:00:00,34.0,21.0,-100.00,WNW,292,19.0,-999.0,59,-99.99,,,-99.99,261.000000,,2013-04-19 22:00:00,
2013-04-19 17:42:00,34.0,21.0,-100.00,WNW,292,19.0,-999.0,59,-99.99,,,-99.99,261.000000,,2013-04-19 22:42:00,
2013-04-19 17:52:00,34.0,21.0,-100.00,WNW,292,19.0,-999.0,59,-99.99,,,-99.99,261.000000,,2013-04-19 22:52:00,
2013-04-19 18:00:00,32.0,19.0,-100.00,WNW,292,18.0,-999.0,56,-99.99,,,-99.99,177.479996,,2013-04-19 23:00:00,
2013-04-19 18:42:00,32.0,19.0,-100.00,WNW,292,18.0,-999.0,56,-99.99,,,-99.99,177.479996,,2013-04-19 23:42:00,
2013-04-19 18:52:00,32.0,19.0,-100.00,WNW,292,18.0,-999.0,56,-99.99,,,-99.99,177.479996,,2013-04-19 23:52:00,
2013-04-19 20:00:00,28.0,17.0,-100.00,NW,315,18.0,-999.0,62,-99.99,,,-99.99,9.280000,,2013-04-20 01:00:00,
2013-04-19 20:42:00,28.0,17.0,-100.00,NW,315,18.0,-999.0,62,-99.99,,,-99.99,9.280000,,2013-04-20 01:42:00,
2013-04-19 20:52:00,28.0,17.0,-100.00,NW,315,18.0,-999.0,62,-99.99,,,-99.99,9.280000,,2013-04-20 01:52:00,
2013-04-19 21:00:00,27.0,16.0,-100.00,NW,315,16.0,-999.0,64,-99.99,,,-99.99,0.000000,,2013-04-20 02:00:00,
2013-04-19 21:42:00,27.0,16.0,-100.00,NW,315,16.0,-999.0,64,-99.99,,,-99.99,0.000000,,2013-04-20 02:42:00,
2013-04-19 21:52:00,27.0,16.0,-100.00,NW,315,16.0,-999.0,64,-99.99,,,-99.99,0.000000,,2013-04-20 02:52:00,
2013-04-19 22:00:00,26.0,15.0,-100.00,NW,315,15.0,-999.0,64,-99.99,,,-99.99,0.000000,,2013-04-20 03:00:00,
2013-04-19 22:43:00,26.0,15.0,-100.00,NW,315,15.0,-999.0,64,-99.99,,,-99.99,0.000000,,2013-04-20 03:43:00,
2013-04-19 22:53:00,26.0,15.0,-100.00,NW,315,15.0,-999.0,64,-99.99,,,-99.99,0.000000,,2013-04-20 03:53:00,
2013-04-19 23:00:00,25.0,15.0,-100.00,NW,315,16.0,-999.0,64,-99.99,,,-99.99,0.000000,,2013-04-20 04:00:00,
2013-04-19 23:43:00,25.0,15.0,-100.00,NW,315,16.0,-999.0,64,-99.99,,,-99.99,0.000000,,2013-04-20 04:43:00,
2013-04-19 23:53:00,25.0,15.0,-100.00,NW,315,16.0,-999.0,64,-99.99,,,-99.99,0.000000,,2013-04-20 04:53:00,